sensor_id;sensor_type;location;lat;lon;timestamp;P1;durP1;ratioP1;P2;durP2;ratioP2
13475;SDS011;6810;63.824;20.288;2023-02-28T00:01:28;0.00;;;0.00;;
13475;SDS011;6810;63.824;20.288;2023-02-28T00:03:56;0.00;;;0.00;;
13475;SDS011;6810;63.824;20.288;2023-02-28T00:06:24;0.00;;;0.00;;
13475;SDS011;6810;63.824;20.288;2023-02-28T00:08:51;0.40;;;0.00;;
13475;SDS011;6810;63.824;20.288;2023-02-28T00:11:18;0.00;;;0.00;;
13475;SDS011;6810;63.824;20.288;2023-02-28T00:13:46;0.83;;;0.00;;
13475;SDS011;6810;63.824;20.288;2023-02-28T00:16:15;0.00;;;0.00;;
13475;SDS011;6810;63.824;20.288;2023-02-28T00:18:45;0.00;;;0.00;;
13475;SDS011;6810;63.824;20.288;2023-02-28T00:21:14;0.00;;;0.00;;
13475;SDS011;6810;63.824;20.288;2023-02-28T00:23:42;0.00;;;0.00;;
13475;SDS011;6810;63.824;20.288;2023-02-28T00:26:10;0.00;;;0.00;;
13475;SDS011;6810;63.824;20.288;2023-02-28T00:28:37;0.00;;;0.00;;
13475;SDS011;6810;63.824;20.288;2023-02-28T00:31:05;0.00;;;0.00;;
13475;SDS011;6810;63.824;20.288;2023-02-28T00:33:32;0.00;;;0.00;;
13475;SDS011;6810;63.824;20.288;2023-02-28T00:36:03;0.00;;;0.00;;
13475;SDS011;6810;63.824;20.288;2023-02-28T00:38:31;0.00;;;0.00;;
13475;SDS011;6810;63.824;20.288;2023-02-28T00:40:59;0.10;;;0.00;;
13475;SDS011;6810;63.824;20.288;2023-02-28T00:43:31;0.20;;;0.00;;
13475;SDS011;6810;63.824;20.288;2023-02-28T00:46:00;0.10;;;0.10;;
13475;SDS011;6810;63.824;20.288;2023-02-28T00:48:29;0.87;;;0.10;;
13475;SDS011;6810;63.824;20.288;2023-02-28T00:50:56;0.00;;;0.00;;
13475;SDS011;6810;63.824;20.288;2023-02-28T00:53:24;0.00;;;0.00;;
13475;SDS011;6810;63.824;20.288;2023-02-28T00:55:51;0.10;;;0.00;;
13475;SDS011;6810;63.824;20.288;2023-02-28T00:58:18;0.20;;;0.00;;
13475;SDS011;6810;63.824;20.288;2023-02-28T01:00:45;0.07;;;0.00;;
13475;SDS011;6810;63.824;20.288;2023-02-28T01:03:16;0.00;;;0.00;;
13475;SDS011;6810;63.824;20.288;2023-02-28T01:05:45;0.00;;;0.00;;
13475;SDS011;6810;63.824;20.288;2023-02-28T01:08:13;0.13;;;0.03;;
13475;SDS011;6810;63.824;20.288;2023-02-28T01:10:41;0.20;;;0.10;;
13475;SDS011;6810;63.824;20.288;2023-02-28T01:13:08;1.87;;;0.10;;
13475;SDS011;6810;63.824;20.288;2023-02-28T01:15:36;0.93;;;0.20;;
13475;SDS011;6810;63.824;20.288;2023-02-28T01:18:04;0.27;;;0.00;;
13475;SDS011;6810;63.824;20.288;2023-02-28T01:20:31;1.10;;;0.20;;
13475;SDS011;6810;63.824;20.288;2023-02-28T01:22:58;1.60;;;0.40;;
13475;SDS011;6810;63.824;20.288;2023-02-28T01:25:26;1.67;;;0.37;;
13475;SDS011;6810;63.824;20.288;2023-02-28T01:27:53;2.80;;;0.40;;
13475;SDS011;6810;63.824;20.288;2023-02-28T01:30:20;1.93;;;0.40;;
13475;SDS011;6810;63.824;20.288;2023-02-28T01:32:47;3.10;;;0.90;;
13475;SDS011;6810;63.824;20.288;2023-02-28T01:35:14;4.73;;;1.10;;
13475;SDS011;6810;63.824;20.288;2023-02-28T01:37:41;2.30;;;0.57;;
13475;SDS011;6810;63.824;20.288;2023-02-28T01:40:08;5.57;;;0.80;;
13475;SDS011;6810;63.824;20.288;2023-02-28T01:42:36;1.40;;;0.63;;
13475;SDS011;6810;63.824;20.288;2023-02-28T01:45:14;5.03;;;1.20;;
13475;SDS011;6810;63.824;20.288;2023-02-28T01:47:46;5.23;;;1.07;;
13475;SDS011;6810;63.824;20.288;2023-02-28T01:50:18;5.63;;;0.70;;
13475;SDS011;6810;63.824;20.288;2023-02-28T01:52:51;4.27;;;0.97;;
13475;SDS011;6810;63.824;20.288;2023-02-28T01:55:22;4.27;;;0.90;;
13475;SDS011;6810;63.824;20.288;2023-02-28T01:57:58;2.73;;;0.83;;
13475;SDS011;6810;63.824;20.288;2023-02-28T02:00:30;2.17;;;0.70;;
13475;SDS011;6810;63.824;20.288;2023-02-28T02:03:07;5.07;;;1.10;;
13475;SDS011;6810;63.824;20.288;2023-02-28T02:05:38;3.87;;;0.97;;
13475;SDS011;6810;63.824;20.288;2023-02-28T02:08:09;5.80;;;1.03;;
13475;SDS011;6810;63.824;20.288;2023-02-28T02:10:40;6.00;;;1.27;;
13475;SDS011;6810;63.824;20.288;2023-02-28T02:18:44;5.17;;;1.10;;
13475;SDS011;6810;63.824;20.288;2023-02-28T02:24:34;3.43;;;1.00;;
13475;SDS011;6810;63.824;20.288;2023-02-28T02:29:55;6.27;;;1.00;;
13475;SDS011;6810;63.824;20.288;2023-02-28T02:35:16;4.93;;;1.07;;
13475;SDS011;6810;63.824;20.288;2023-02-28T02:41:04;6.40;;;0.90;;
13475;SDS011;6810;63.824;20.288;2023-02-28T02:44:37;3.20;;;1.03;;
13475;SDS011;6810;63.824;20.288;2023-02-28T02:46:37;4.07;;;0.70;;
13475;SDS011;6810;63.824;20.288;2023-02-28T02:49:10;4.43;;;0.70;;
13475;SDS011;6810;63.824;20.288;2023-02-28T02:51:41;3.93;;;0.83;;
13475;SDS011;6810;63.824;20.288;2023-02-28T02:54:21;4.50;;;1.20;;
13475;SDS011;6810;63.824;20.288;2023-02-28T02:56:57;7.80;;;1.30;;
13475;SDS011;6810;63.824;20.288;2023-02-28T02:59:27;4.10;;;1.20;;
13475;SDS011;6810;63.824;20.288;2023-02-28T03:01:57;4.00;;;1.20;;
13475;SDS011;6810;63.824;20.288;2023-02-28T03:04:28;4.63;;;0.90;;
13475;SDS011;6810;63.824;20.288;2023-02-28T03:07:00;6.60;;;1.00;;
13475;SDS011;6810;63.824;20.288;2023-02-28T03:09:27;5.03;;;0.93;;
13475;SDS011;6810;63.824;20.288;2023-02-28T03:11:55;5.77;;;1.00;;
13475;SDS011;6810;63.824;20.288;2023-02-28T03:17:24;4.47;;;0.87;;
13475;SDS011;6810;63.824;20.288;2023-02-28T03:25:38;7.70;;;0.70;;
13475;SDS011;6810;63.824;20.288;2023-02-28T03:33:22;6.97;;;1.23;;
13475;SDS011;6810;63.824;20.288;2023-02-28T03:35:59;4.30;;;1.00;;
13475;SDS011;6810;63.824;20.288;2023-02-28T03:38:34;5.67;;;1.00;;
13475;SDS011;6810;63.824;20.288;2023-02-28T03:41:06;5.07;;;1.00;;
13475;SDS011;6810;63.824;20.288;2023-02-28T03:43:42;3.80;;;0.90;;
13475;SDS011;6810;63.824;20.288;2023-02-28T03:46:15;4.37;;;1.37;;
13475;SDS011;6810;63.824;20.288;2023-02-28T03:48:49;5.43;;;1.23;;
13475;SDS011;6810;63.824;20.288;2023-02-28T03:51:29;4.20;;;1.20;;
13475;SDS011;6810;63.824;20.288;2023-02-28T03:54:04;5.33;;;1.33;;
13475;SDS011;6810;63.824;20.288;2023-02-28T03:56:41;6.67;;;1.27;;
13475;SDS011;6810;63.824;20.288;2023-02-28T03:59:22;7.10;;;1.13;;
13475;SDS011;6810;63.824;20.288;2023-02-28T04:01:54;4.80;;;1.10;;
13475;SDS011;6810;63.824;20.288;2023-02-28T04:04:21;5.87;;;1.23;;
13475;SDS011;6810;63.824;20.288;2023-02-28T04:06:49;4.63;;;0.90;;
13475;SDS011;6810;63.824;20.288;2023-02-28T04:09:18;6.57;;;1.20;;
13475;SDS011;6810;63.824;20.288;2023-02-28T04:11:53;5.60;;;1.30;;
13475;SDS011;6810;63.824;20.288;2023-02-28T04:14:20;5.07;;;1.13;;
13475;SDS011;6810;63.824;20.288;2023-02-28T04:16:47;5.97;;;1.00;;
13475;SDS011;6810;63.824;20.288;2023-02-28T04:19:14;5.00;;;0.90;;
13475;SDS011;6810;63.824;20.288;2023-02-28T04:21:42;4.00;;;1.10;;
13475;SDS011;6810;63.824;20.288;2023-02-28T04:24:13;3.77;;;1.13;;
13475;SDS011;6810;63.824;20.288;2023-02-28T04:26:43;5.23;;;1.30;;
13475;SDS011;6810;63.824;20.288;2023-02-28T04:29:12;2.97;;;0.93;;
13475;SDS011;6810;63.824;20.288;2023-02-28T04:31:44;3.93;;;1.17;;
13475;SDS011;6810;63.824;20.288;2023-02-28T04:34:11;6.00;;;1.10;;
13475;SDS011;6810;63.824;20.288;2023-02-28T04:36:38;4.27;;;1.03;;
13475;SDS011;6810;63.824;20.288;2023-02-28T04:39:05;4.13;;;1.17;;
13475;SDS011;6810;63.824;20.288;2023-02-28T04:41:33;6.43;;;1.20;;
13475;SDS011;6810;63.824;20.288;2023-02-28T04:44:00;5.03;;;1.20;;
13475;SDS011;6810;63.824;20.288;2023-02-28T04:46:27;6.57;;;0.90;;
13475;SDS011;6810;63.824;20.288;2023-02-28T04:48:54;7.87;;;1.20;;
13475;SDS011;6810;63.824;20.288;2023-02-28T04:51:21;5.20;;;1.10;;
13475;SDS011;6810;63.824;20.288;2023-02-28T04:53:48;5.70;;;1.40;;
13475;SDS011;6810;63.824;20.288;2023-02-28T04:56:16;7.40;;;1.50;;
13475;SDS011;6810;63.824;20.288;2023-02-28T04:58:44;5.03;;;1.00;;
13475;SDS011;6810;63.824;20.288;2023-02-28T05:01:22;6.33;;;0.90;;
13475;SDS011;6810;63.824;20.288;2023-02-28T05:03:55;6.37;;;1.97;;
13475;SDS011;6810;63.824;20.288;2023-02-28T05:06:24;7.87;;;1.10;;
13475;SDS011;6810;63.824;20.288;2023-02-28T05:08:53;9.37;;;1.43;;
13475;SDS011;6810;63.824;20.288;2023-02-28T05:11:21;6.13;;;1.00;;
13475;SDS011;6810;63.824;20.288;2023-02-28T05:13:51;3.93;;;0.83;;
13475;SDS011;6810;63.824;20.288;2023-02-28T05:16:18;3.43;;;1.00;;
13475;SDS011;6810;63.824;20.288;2023-02-28T05:18:46;4.97;;;1.00;;
13475;SDS011;6810;63.824;20.288;2023-02-28T05:21:24;7.40;;;1.40;;
13475;SDS011;6810;63.824;20.288;2023-02-28T05:23:52;3.90;;;1.20;;
13475;SDS011;6810;63.824;20.288;2023-02-28T05:26:19;8.13;;;1.00;;
13475;SDS011;6810;63.824;20.288;2023-02-28T05:28:46;4.83;;;0.93;;
13475;SDS011;6810;63.824;20.288;2023-02-28T05:31:13;4.17;;;1.13;;
13475;SDS011;6810;63.824;20.288;2023-02-28T05:33:40;3.23;;;0.93;;
13475;SDS011;6810;63.824;20.288;2023-02-28T05:36:07;3.83;;;0.90;;
13475;SDS011;6810;63.824;20.288;2023-02-28T05:38:35;4.33;;;1.30;;
13475;SDS011;6810;63.824;20.288;2023-02-28T05:41:05;4.30;;;0.90;;
13475;SDS011;6810;63.824;20.288;2023-02-28T05:43:33;5.87;;;1.60;;
13475;SDS011;6810;63.824;20.288;2023-02-28T05:46:05;5.47;;;1.07;;
13475;SDS011;6810;63.824;20.288;2023-02-28T05:48:36;5.17;;;1.17;;
13475;SDS011;6810;63.824;20.288;2023-02-28T05:51:05;5.73;;;1.20;;
13475;SDS011;6810;63.824;20.288;2023-02-28T05:53:33;6.20;;;1.10;;
13475;SDS011;6810;63.824;20.288;2023-02-28T05:56:00;4.87;;;1.10;;
13475;SDS011;6810;63.824;20.288;2023-02-28T05:58:27;6.83;;;1.20;;
13475;SDS011;6810;63.824;20.288;2023-02-28T06:01:01;2.67;;;1.07;;
13475;SDS011;6810;63.824;20.288;2023-02-28T06:03:47;4.70;;;0.87;;
13475;SDS011;6810;63.824;20.288;2023-02-28T06:06:14;4.20;;;1.17;;
13475;SDS011;6810;63.824;20.288;2023-02-28T06:08:40;3.53;;;0.90;;
13475;SDS011;6810;63.824;20.288;2023-02-28T06:11:10;4.43;;;1.10;;
13475;SDS011;6810;63.824;20.288;2023-02-28T06:13:36;5.33;;;1.30;;
13475;SDS011;6810;63.824;20.288;2023-02-28T06:16:03;5.27;;;1.20;;
13475;SDS011;6810;63.824;20.288;2023-02-28T06:18:31;6.60;;;1.17;;
13475;SDS011;6810;63.824;20.288;2023-02-28T06:20:58;2.13;;;0.97;;
13475;SDS011;6810;63.824;20.288;2023-02-28T06:23:25;4.53;;;0.73;;
13475;SDS011;6810;63.824;20.288;2023-02-28T06:25:52;6.53;;;1.20;;
13475;SDS011;6810;63.824;20.288;2023-02-28T06:28:19;4.27;;;0.60;;
13475;SDS011;6810;63.824;20.288;2023-02-28T06:30:46;3.37;;;0.87;;
13475;SDS011;6810;63.824;20.288;2023-02-28T06:33:13;5.00;;;1.10;;
13475;SDS011;6810;63.824;20.288;2023-02-28T06:35:43;4.03;;;1.00;;
13475;SDS011;6810;63.824;20.288;2023-02-28T06:38:11;5.33;;;1.07;;
13475;SDS011;6810;63.824;20.288;2023-02-28T06:40:38;4.87;;;0.97;;
13475;SDS011;6810;63.824;20.288;2023-02-28T06:43:05;2.63;;;0.80;;
13475;SDS011;6810;63.824;20.288;2023-02-28T06:45:32;4.83;;;0.93;;
13475;SDS011;6810;63.824;20.288;2023-02-28T06:47:59;6.37;;;1.20;;
13475;SDS011;6810;63.824;20.288;2023-02-28T06:50:26;4.50;;;0.80;;
13475;SDS011;6810;63.824;20.288;2023-02-28T06:52:55;5.13;;;0.80;;
13475;SDS011;6810;63.824;20.288;2023-02-28T06:55:23;2.57;;;0.77;;
13475;SDS011;6810;63.824;20.288;2023-02-28T06:57:49;1.63;;;0.60;;
13475;SDS011;6810;63.824;20.288;2023-02-28T07:00:17;2.67;;;0.70;;
13475;SDS011;6810;63.824;20.288;2023-02-28T07:02:44;4.57;;;1.13;;
13475;SDS011;6810;63.824;20.288;2023-02-28T07:05:12;4.47;;;0.97;;
13475;SDS011;6810;63.824;20.288;2023-02-28T07:07:39;3.80;;;1.03;;
13475;SDS011;6810;63.824;20.288;2023-02-28T07:10:10;5.67;;;0.83;;
13475;SDS011;6810;63.824;20.288;2023-02-28T07:12:37;4.20;;;0.80;;
13475;SDS011;6810;63.824;20.288;2023-02-28T07:15:05;5.13;;;1.20;;
13475;SDS011;6810;63.824;20.288;2023-02-28T07:17:32;5.00;;;1.17;;
13475;SDS011;6810;63.824;20.288;2023-02-28T07:19:59;6.60;;;0.90;;
13475;SDS011;6810;63.824;20.288;2023-02-28T07:22:26;3.57;;;0.73;;
13475;SDS011;6810;63.824;20.288;2023-02-28T07:24:55;3.77;;;0.93;;
13475;SDS011;6810;63.824;20.288;2023-02-28T07:27:22;3.17;;;0.97;;
13475;SDS011;6810;63.824;20.288;2023-02-28T07:29:52;5.03;;;1.00;;
13475;SDS011;6810;63.824;20.288;2023-02-28T07:32:20;6.03;;;0.90;;
13475;SDS011;6810;63.824;20.288;2023-02-28T07:34:47;5.47;;;0.87;;
13475;SDS011;6810;63.824;20.288;2023-02-28T07:37:15;3.70;;;1.10;;
13475;SDS011;6810;63.824;20.288;2023-02-28T07:39:42;5.87;;;1.20;;
13475;SDS011;6810;63.824;20.288;2023-02-28T07:42:09;4.03;;;1.03;;
13475;SDS011;6810;63.824;20.288;2023-02-28T07:44:39;7.67;;;1.13;;
13475;SDS011;6810;63.824;20.288;2023-02-28T07:47:10;3.33;;;0.80;;
13475;SDS011;6810;63.824;20.288;2023-02-28T07:49:37;3.73;;;0.93;;
13475;SDS011;6810;63.824;20.288;2023-02-28T07:52:05;5.83;;;0.93;;
13475;SDS011;6810;63.824;20.288;2023-02-28T07:54:33;2.60;;;0.63;;
13475;SDS011;6810;63.824;20.288;2023-02-28T07:57:00;4.73;;;0.80;;
13475;SDS011;6810;63.824;20.288;2023-02-28T07:59:27;5.67;;;0.90;;
13475;SDS011;6810;63.824;20.288;2023-02-28T08:01:58;5.73;;;1.00;;
13475;SDS011;6810;63.824;20.288;2023-02-28T08:04:25;4.27;;;0.83;;
13475;SDS011;6810;63.824;20.288;2023-02-28T08:06:53;4.33;;;0.83;;
13475;SDS011;6810;63.824;20.288;2023-02-28T08:09:20;6.77;;;1.07;;
13475;SDS011;6810;63.824;20.288;2023-02-28T08:11:47;4.50;;;0.77;;
13475;SDS011;6810;63.824;20.288;2023-02-28T08:14:14;2.70;;;0.80;;
13475;SDS011;6810;63.824;20.288;2023-02-28T08:16:41;2.73;;;0.87;;
13475;SDS011;6810;63.824;20.288;2023-02-28T08:19:09;3.67;;;0.90;;
13475;SDS011;6810;63.824;20.288;2023-02-28T08:21:36;3.53;;;0.90;;
13475;SDS011;6810;63.824;20.288;2023-02-28T08:24:03;6.20;;;1.10;;
13475;SDS011;6810;63.824;20.288;2023-02-28T08:26:30;3.33;;;0.90;;
13475;SDS011;6810;63.824;20.288;2023-02-28T08:28:57;3.20;;;1.10;;
13475;SDS011;6810;63.824;20.288;2023-02-28T08:31:26;6.93;;;1.43;;
13475;SDS011;6810;63.824;20.288;2023-02-28T08:33:54;3.10;;;0.87;;
13475;SDS011;6810;63.824;20.288;2023-02-28T08:36:25;6.77;;;1.10;;
13475;SDS011;6810;63.824;20.288;2023-02-28T08:38:56;5.73;;;0.90;;
13475;SDS011;6810;63.824;20.288;2023-02-28T08:41:23;6.43;;;0.97;;
13475;SDS011;6810;63.824;20.288;2023-02-28T08:43:50;2.77;;;0.80;;
13475;SDS011;6810;63.824;20.288;2023-02-28T08:46:17;8.70;;;1.00;;
13475;SDS011;6810;63.824;20.288;2023-02-28T08:48:44;5.73;;;0.83;;
13475;SDS011;6810;63.824;20.288;2023-02-28T08:51:13;4.03;;;0.83;;
13475;SDS011;6810;63.824;20.288;2023-02-28T08:53:48;4.67;;;1.00;;
13475;SDS011;6810;63.824;20.288;2023-02-28T08:56:18;2.60;;;0.70;;
13475;SDS011;6810;63.824;20.288;2023-02-28T08:58:45;4.83;;;1.00;;
13475;SDS011;6810;63.824;20.288;2023-02-28T09:01:14;4.53;;;0.83;;
13475;SDS011;6810;63.824;20.288;2023-02-28T09:03:43;3.87;;;0.90;;
13475;SDS011;6810;63.824;20.288;2023-02-28T09:06:13;4.77;;;1.00;;
13475;SDS011;6810;63.824;20.288;2023-02-28T09:08:42;2.50;;;0.60;;
13475;SDS011;6810;63.824;20.288;2023-02-28T09:11:09;4.47;;;0.93;;
13475;SDS011;6810;63.824;20.288;2023-02-28T09:13:36;6.37;;;1.10;;
13475;SDS011;6810;63.824;20.288;2023-02-28T09:16:05;5.67;;;0.80;;
13475;SDS011;6810;63.824;20.288;2023-02-28T09:18:34;2.73;;;0.80;;
13475;SDS011;6810;63.824;20.288;2023-02-28T09:21:04;2.53;;;0.90;;
13475;SDS011;6810;63.824;20.288;2023-02-28T09:23:33;5.20;;;0.80;;
13475;SDS011;6810;63.824;20.288;2023-02-28T09:26:00;3.63;;;0.80;;
13475;SDS011;6810;63.824;20.288;2023-02-28T09:28:27;6.40;;;1.00;;
13475;SDS011;6810;63.824;20.288;2023-02-28T09:30:54;6.87;;;1.23;;
13475;SDS011;6810;63.824;20.288;2023-02-28T09:33:23;5.40;;;1.00;;
13475;SDS011;6810;63.824;20.288;2023-02-28T09:35:50;6.27;;;0.93;;
13475;SDS011;6810;63.824;20.288;2023-02-28T09:38:23;2.27;;;0.90;;
13475;SDS011;6810;63.824;20.288;2023-02-28T09:40:52;5.80;;;1.10;;
13475;SDS011;6810;63.824;20.288;2023-02-28T09:43:23;5.00;;;1.00;;
13475;SDS011;6810;63.824;20.288;2023-02-28T09:45:56;4.30;;;0.90;;
13475;SDS011;6810;63.824;20.288;2023-02-28T09:48:33;3.47;;;0.90;;
13475;SDS011;6810;63.824;20.288;2023-02-28T09:51:12;5.93;;;0.97;;
13475;SDS011;6810;63.824;20.288;2023-02-28T09:53:41;5.30;;;1.00;;
13475;SDS011;6810;63.824;20.288;2023-02-28T09:56:15;3.00;;;0.77;;
13475;SDS011;6810;63.824;20.288;2023-02-28T09:58:57;4.20;;;1.00;;
13475;SDS011;6810;63.824;20.288;2023-02-28T10:04:25;3.80;;;0.83;;
13475;SDS011;6810;63.824;20.288;2023-02-28T10:07:17;2.57;;;0.93;;
13475;SDS011;6810;63.824;20.288;2023-02-28T10:09:52;3.13;;;0.70;;
13475;SDS011;6810;63.824;20.288;2023-02-28T10:12:21;3.77;;;0.80;;
13475;SDS011;6810;63.824;20.288;2023-02-28T10:14:49;4.13;;;1.00;;
13475;SDS011;6810;63.824;20.288;2023-02-28T10:17:20;2.60;;;0.90;;
13475;SDS011;6810;63.824;20.288;2023-02-28T10:22:29;4.90;;;0.83;;
13475;SDS011;6810;63.824;20.288;2023-02-28T10:25:05;4.30;;;0.90;;
13475;SDS011;6810;63.824;20.288;2023-02-28T10:27:44;3.47;;;0.90;;
13475;SDS011;6810;63.824;20.288;2023-02-28T10:30:12;4.70;;;0.90;;
13475;SDS011;6810;63.824;20.288;2023-02-28T10:32:40;4.07;;;0.90;;
13475;SDS011;6810;63.824;20.288;2023-02-28T10:35:26;5.13;;;0.90;;
13475;SDS011;6810;63.824;20.288;2023-02-28T10:37:55;3.77;;;0.70;;
13475;SDS011;6810;63.824;20.288;2023-02-28T10:42:57;3.23;;;0.90;;
13475;SDS011;6810;63.824;20.288;2023-02-28T10:45:30;4.47;;;0.93;;
13475;SDS011;6810;63.824;20.288;2023-02-28T10:48:02;4.53;;;0.83;;
13475;SDS011;6810;63.824;20.288;2023-02-28T10:55:56;2.47;;;0.77;;
13475;SDS011;6810;63.824;20.288;2023-02-28T10:58:24;4.10;;;0.70;;
13475;SDS011;6810;63.824;20.288;2023-02-28T11:00:53;2.63;;;0.80;;
13475;SDS011;6810;63.824;20.288;2023-02-28T11:03:27;6.70;;;1.00;;
13475;SDS011;6810;63.824;20.288;2023-02-28T11:05:57;2.27;;;0.60;;
13475;SDS011;6810;63.824;20.288;2023-02-28T11:08:30;1.70;;;0.60;;
13475;SDS011;6810;63.824;20.288;2023-02-28T11:11:04;4.27;;;0.80;;
13475;SDS011;6810;63.824;20.288;2023-02-28T11:13:34;3.47;;;0.50;;
13475;SDS011;6810;63.824;20.288;2023-02-28T11:16:05;6.10;;;0.90;;
13475;SDS011;6810;63.824;20.288;2023-02-28T11:18:55;3.43;;;0.80;;
13475;SDS011;6810;63.824;20.288;2023-02-28T11:21:23;1.90;;;0.63;;
13475;SDS011;6810;63.824;20.288;2023-02-28T11:23:57;7.40;;;1.17;;
13475;SDS011;6810;63.824;20.288;2023-02-28T11:26:50;2.67;;;0.90;;
13475;SDS011;6810;63.824;20.288;2023-02-28T11:29:22;4.73;;;0.93;;
13475;SDS011;6810;63.824;20.288;2023-02-28T11:32:10;3.30;;;0.70;;
13475;SDS011;6810;63.824;20.288;2023-02-28T11:34:42;5.57;;;1.40;;
13475;SDS011;6810;63.824;20.288;2023-02-28T11:37:14;2.00;;;0.80;;
13475;SDS011;6810;63.824;20.288;2023-02-28T11:39:45;5.33;;;0.90;;
13475;SDS011;6810;63.824;20.288;2023-02-28T11:48:32;3.67;;;0.80;;
13475;SDS011;6810;63.824;20.288;2023-02-28T11:56:18;4.17;;;0.80;;
13475;SDS011;6810;63.824;20.288;2023-02-28T11:59:08;3.43;;;0.60;;
13475;SDS011;6810;63.824;20.288;2023-02-28T12:07:22;2.97;;;0.60;;
13475;SDS011;6810;63.824;20.288;2023-02-28T12:10:04;4.77;;;0.73;;
13475;SDS011;6810;63.824;20.288;2023-02-28T12:12:50;3.03;;;0.80;;
13475;SDS011;6810;63.824;20.288;2023-02-28T12:26:45;2.47;;;0.87;;
13475;SDS011;6810;63.824;20.288;2023-02-28T12:29:30;3.57;;;0.80;;
13475;SDS011;6810;63.824;20.288;2023-02-28T12:32:06;4.43;;;0.80;;
13475;SDS011;6810;63.824;20.288;2023-02-28T12:35:01;3.63;;;0.70;;
13475;SDS011;6810;63.824;20.288;2023-02-28T12:40:24;5.57;;;1.33;;
13475;SDS011;6810;63.824;20.288;2023-02-28T12:43:03;1.67;;;0.53;;
13475;SDS011;6810;63.824;20.288;2023-02-28T12:45:42;3.33;;;0.67;;
13475;SDS011;6810;63.824;20.288;2023-02-28T12:48:20;3.73;;;0.80;;
13475;SDS011;6810;63.824;20.288;2023-02-28T12:50:52;2.27;;;0.60;;
13475;SDS011;6810;63.824;20.288;2023-02-28T13:09:38;2.30;;;0.63;;
13475;SDS011;6810;63.824;20.288;2023-02-28T13:12:12;1.73;;;0.47;;
13475;SDS011;6810;63.824;20.288;2023-02-28T13:14:41;4.63;;;0.90;;
13475;SDS011;6810;63.824;20.288;2023-02-28T13:19:37;6.13;;;1.10;;
13475;SDS011;6810;63.824;20.288;2023-02-28T13:22:15;6.47;;;1.00;;
13475;SDS011;6810;63.824;20.288;2023-02-28T13:24:47;3.23;;;0.80;;
13475;SDS011;6810;63.824;20.288;2023-02-28T13:29:58;3.80;;;0.60;;
13475;SDS011;6810;63.824;20.288;2023-02-28T13:42:56;5.80;;;1.60;;
13475;SDS011;6810;63.824;20.288;2023-02-28T13:46:12;4.97;;;0.80;;
13475;SDS011;6810;63.824;20.288;2023-02-28T13:55:09;2.17;;;0.60;;
13475;SDS011;6810;63.824;20.288;2023-02-28T14:06:59;4.83;;;1.33;;
13475;SDS011;6810;63.824;20.288;2023-02-28T14:09:50;2.33;;;0.70;;
13475;SDS011;6810;63.824;20.288;2023-02-28T14:12:59;2.60;;;0.67;;
13475;SDS011;6810;63.824;20.288;2023-02-28T14:15:59;3.67;;;0.80;;
13475;SDS011;6810;63.824;20.288;2023-02-28T14:18:48;3.07;;;0.47;;
13475;SDS011;6810;63.824;20.288;2023-02-28T14:21:53;4.13;;;0.80;;
13475;SDS011;6810;63.824;20.288;2023-02-28T14:24:51;7.60;;;1.37;;
13475;SDS011;6810;63.824;20.288;2023-02-28T14:30:49;3.77;;;0.77;;
13475;SDS011;6810;63.824;20.288;2023-02-28T14:36:32;3.63;;;0.90;;
13475;SDS011;6810;63.824;20.288;2023-02-28T14:39:22;3.23;;;0.70;;
13475;SDS011;6810;63.824;20.288;2023-02-28T14:42:27;3.70;;;0.80;;
13475;SDS011;6810;63.824;20.288;2023-02-28T14:45:18;2.77;;;0.77;;
13475;SDS011;6810;63.824;20.288;2023-02-28T14:48:09;2.30;;;0.73;;
13475;SDS011;6810;63.824;20.288;2023-02-28T14:50:57;2.27;;;0.77;;
13475;SDS011;6810;63.824;20.288;2023-02-28T14:53:46;3.50;;;0.63;;
13475;SDS011;6810;63.824;20.288;2023-02-28T14:56:37;3.97;;;0.57;;
13475;SDS011;6810;63.824;20.288;2023-02-28T14:59:31;3.40;;;0.70;;
13475;SDS011;6810;63.824;20.288;2023-02-28T15:02:21;4.13;;;0.60;;
13475;SDS011;6810;63.824;20.288;2023-02-28T15:08:05;2.47;;;0.70;;
13475;SDS011;6810;63.824;20.288;2023-02-28T15:14:01;4.33;;;0.73;;
13475;SDS011;6810;63.824;20.288;2023-02-28T15:16:51;1.57;;;0.50;;
13475;SDS011;6810;63.824;20.288;2023-02-28T15:19:42;2.87;;;0.60;;
13475;SDS011;6810;63.824;20.288;2023-02-28T15:22:35;3.13;;;0.60;;
13475;SDS011;6810;63.824;20.288;2023-02-28T15:25:24;3.17;;;0.70;;
13475;SDS011;6810;63.824;20.288;2023-02-28T15:28:16;1.47;;;0.60;;
13475;SDS011;6810;63.824;20.288;2023-02-28T15:31:19;2.83;;;0.63;;
13475;SDS011;6810;63.824;20.288;2023-02-28T15:34:36;1.37;;;0.40;;
13475;SDS011;6810;63.824;20.288;2023-02-28T15:40:36;3.67;;;0.60;;
13475;SDS011;6810;63.824;20.288;2023-02-28T15:43:28;3.70;;;0.90;;
13475;SDS011;6810;63.824;20.288;2023-02-28T15:46:17;2.03;;;0.53;;
13475;SDS011;6810;63.824;20.288;2023-02-28T15:49:12;2.20;;;0.60;;
13475;SDS011;6810;63.824;20.288;2023-02-28T15:52:44;5.40;;;0.97;;
13475;SDS011;6810;63.824;20.288;2023-02-28T15:55:30;4.00;;;0.77;;
13475;SDS011;6810;63.824;20.288;2023-02-28T15:58:17;2.10;;;0.60;;
13475;SDS011;6810;63.824;20.288;2023-02-28T16:01:15;4.40;;;0.80;;
13475;SDS011;6810;63.824;20.288;2023-02-28T16:04:16;3.63;;;0.73;;
13475;SDS011;6810;63.824;20.288;2023-02-28T16:07:05;2.63;;;0.47;;
13475;SDS011;6810;63.824;20.288;2023-02-28T16:09:59;3.27;;;0.60;;
13475;SDS011;6810;63.824;20.288;2023-02-28T16:12:46;2.80;;;0.70;;
13475;SDS011;6810;63.824;20.288;2023-02-28T16:15:35;2.07;;;0.40;;
13475;SDS011;6810;63.824;20.288;2023-02-28T16:18:28;2.50;;;0.53;;
13475;SDS011;6810;63.824;20.288;2023-02-28T16:21:15;3.60;;;0.57;;
13475;SDS011;6810;63.824;20.288;2023-02-28T16:24:02;2.27;;;0.60;;
13475;SDS011;6810;63.824;20.288;2023-02-28T16:26:49;4.50;;;0.63;;
13475;SDS011;6810;63.824;20.288;2023-02-28T16:29:40;1.43;;;0.33;;
13475;SDS011;6810;63.824;20.288;2023-02-28T16:32:34;1.23;;;0.50;;
13475;SDS011;6810;63.824;20.288;2023-02-28T16:35:21;2.67;;;0.60;;
13475;SDS011;6810;63.824;20.288;2023-02-28T16:38:09;2.23;;;0.57;;
13475;SDS011;6810;63.824;20.288;2023-02-28T16:40:56;3.57;;;0.60;;
13475;SDS011;6810;63.824;20.288;2023-02-28T16:43:46;2.83;;;0.60;;
13475;SDS011;6810;63.824;20.288;2023-02-28T16:46:35;3.93;;;0.80;;
13475;SDS011;6810;63.824;20.288;2023-02-28T16:49:23;2.97;;;0.70;;
13475;SDS011;6810;63.824;20.288;2023-02-28T16:52:10;3.10;;;0.63;;
13475;SDS011;6810;63.824;20.288;2023-02-28T16:55:00;2.80;;;0.50;;
13475;SDS011;6810;63.824;20.288;2023-02-28T16:57:49;2.17;;;0.60;;
13475;SDS011;6810;63.824;20.288;2023-02-28T17:00:39;4.57;;;0.67;;
13475;SDS011;6810;63.824;20.288;2023-02-28T17:03:27;4.27;;;0.70;;
13475;SDS011;6810;63.824;20.288;2023-02-28T17:06:22;0.93;;;0.37;;
13475;SDS011;6810;63.824;20.288;2023-02-28T17:09:16;3.53;;;0.60;;
13475;SDS011;6810;63.824;20.288;2023-02-28T17:12:09;3.33;;;0.50;;
13475;SDS011;6810;63.824;20.288;2023-02-28T17:14:56;1.23;;;0.40;;
13475;SDS011;6810;63.824;20.288;2023-02-28T17:17:29;2.00;;;0.60;;
13475;SDS011;6810;63.824;20.288;2023-02-28T17:19:56;3.17;;;0.67;;
13475;SDS011;6810;63.824;20.288;2023-02-28T17:22:23;2.27;;;0.43;;
13475;SDS011;6810;63.824;20.288;2023-02-28T17:24:52;5.40;;;0.90;;
13475;SDS011;6810;63.824;20.288;2023-02-28T17:27:25;2.57;;;0.43;;
13475;SDS011;6810;63.824;20.288;2023-02-28T17:29:52;2.37;;;0.40;;
13475;SDS011;6810;63.824;20.288;2023-02-28T17:32:19;2.70;;;0.60;;
13475;SDS011;6810;63.824;20.288;2023-02-28T17:34:46;4.20;;;0.60;;
13475;SDS011;6810;63.824;20.288;2023-02-28T17:37:13;2.77;;;0.60;;
13475;SDS011;6810;63.824;20.288;2023-02-28T17:39:40;2.83;;;0.67;;
13475;SDS011;6810;63.824;20.288;2023-02-28T17:42:07;2.17;;;0.43;;
13475;SDS011;6810;63.824;20.288;2023-02-28T17:44:34;4.37;;;0.50;;
13475;SDS011;6810;63.824;20.288;2023-02-28T17:47:01;6.47;;;0.60;;
13475;SDS011;6810;63.824;20.288;2023-02-28T17:49:28;2.90;;;0.50;;